sensor_id;sensor_type;location;lat;lon;timestamp;P1;durP1;ratioP1;P2;durP2;ratioP2
12425;SDS011;6277;49.824;9.562;2023-11-22T00:00:18;1.08;;;0.80;;
12425;SDS011;6277;49.824;9.562;2023-11-22T00:02:46;0.90;;;0.80;;
12425;SDS011;6277;49.824;9.562;2023-11-22T00:05:12;0.70;;;0.68;;
12425;SDS011;6277;49.824;9.562;2023-11-22T00:07:38;1.33;;;0.90;;
12425;SDS011;6277;49.824;9.562;2023-11-22T00:10:04;1.67;;;1.00;;
12425;SDS011;6277;49.824;9.562;2023-11-22T00:12:30;1.15;;;0.85;;
12425;SDS011;6277;49.824;9.562;2023-11-22T00:15:03;0.93;;;0.70;;
12425;SDS011;6277;49.824;9.562;2023-11-22T00:17:32;1.50;;;1.00;;
12425;SDS011;6277;49.824;9.562;2023-11-22T00:19:59;0.93;;;0.88;;
12425;SDS011;6277;49.824;9.562;2023-11-22T00:22:27;1.58;;;1.10;;
12425;SDS011;6277;49.824;9.562;2023-11-22T00:24:52;1.20;;;0.80;;
12425;SDS011;6277;49.824;9.562;2023-11-22T00:27:18;1.00;;;0.80;;
12425;SDS011;6277;49.824;9.562;2023-11-22T00:29:44;1.30;;;1.10;;
12425;SDS011;6277;49.824;9.562;2023-11-22T00:32:11;1.42;;;1.00;;
12425;SDS011;6277;49.824;9.562;2023-11-22T00:34:36;2.30;;;1.13;;
12425;SDS011;6277;49.824;9.562;2023-11-22T00:37:02;1.60;;;1.10;;
12425;SDS011;6277;49.824;9.562;2023-11-22T00:39:27;1.95;;;1.20;;
12425;SDS011;6277;49.824;9.562;2023-11-22T00:41:53;0.80;;;0.80;;
12425;SDS011;6277;49.824;9.562;2023-11-22T00:44:20;1.95;;;1.60;;
12425;SDS011;6277;49.824;9.562;2023-11-22T00:46:46;1.30;;;1.05;;
12425;SDS011;6277;49.824;9.562;2023-11-22T00:49:11;1.30;;;1.20;;
12425;SDS011;6277;49.824;9.562;2023-11-22T00:51:38;1.83;;;1.20;;
12425;SDS011;6277;49.824;9.562;2023-11-22T00:54:03;1.52;;;1.10;;
12425;SDS011;6277;49.824;9.562;2023-11-22T00:56:29;2.67;;;1.33;;
12425;SDS011;6277;49.824;9.562;2023-11-22T00:58:55;1.10;;;1.00;;
12425;SDS011;6277;49.824;9.562;2023-11-22T01:01:22;2.33;;;1.20;;
12425;SDS011;6277;49.824;9.562;2023-11-22T01:03:47;1.88;;;1.20;;
12425;SDS011;6277;49.824;9.562;2023-11-22T01:06:13;4.13;;;1.20;;
12425;SDS011;6277;49.824;9.562;2023-11-22T01:08:39;1.90;;;1.13;;
12425;SDS011;6277;49.824;9.562;2023-11-22T01:11:05;1.67;;;1.20;;
12425;SDS011;6277;49.824;9.562;2023-11-22T01:13:31;1.75;;;1.13;;
12425;SDS011;6277;49.824;9.562;2023-11-22T01:15:57;1.75;;;1.33;;
12425;SDS011;6277;49.824;9.562;2023-11-22T01:18:23;2.13;;;1.58;;
12425;SDS011;6277;49.824;9.562;2023-11-22T01:20:49;1.50;;;1.23;;
12425;SDS011;6277;49.824;9.562;2023-11-22T01:23:14;1.50;;;1.40;;
12425;SDS011;6277;49.824;9.562;2023-11-22T01:25:40;1.80;;;1.40;;
12425;SDS011;6277;49.824;9.562;2023-11-22T01:28:05;2.25;;;1.48;;
12425;SDS011;6277;49.824;9.562;2023-11-22T01:30:31;2.92;;;1.42;;
12425;SDS011;6277;49.824;9.562;2023-11-22T01:32:58;2.17;;;1.63;;
12425;SDS011;6277;49.824;9.562;2023-11-22T01:35:24;1.90;;;1.38;;
12425;SDS011;6277;49.824;9.562;2023-11-22T01:37:49;2.25;;;1.40;;
12425;SDS011;6277;49.824;9.562;2023-11-22T01:40:15;2.83;;;1.60;;
12425;SDS011;6277;49.824;9.562;2023-11-22T01:42:41;2.55;;;1.80;;
12425;SDS011;6277;49.824;9.562;2023-11-22T01:45:07;3.00;;;1.50;;
12425;SDS011;6277;49.824;9.562;2023-11-22T01:47:34;2.80;;;1.45;;
12425;SDS011;6277;49.824;9.562;2023-11-22T01:50:00;1.92;;;1.27;;
12425;SDS011;6277;49.824;9.562;2023-11-22T01:52:26;1.95;;;1.40;;
12425;SDS011;6277;49.824;9.562;2023-11-22T01:54:52;1.52;;;1.35;;
12425;SDS011;6277;49.824;9.562;2023-11-22T01:57:17;2.13;;;1.30;;
12425;SDS011;6277;49.824;9.562;2023-11-22T01:59:44;2.65;;;1.73;;
12425;SDS011;6277;49.824;9.562;2023-11-22T02:02:12;1.90;;;1.40;;
12425;SDS011;6277;49.824;9.562;2023-11-22T02:04:38;1.55;;;1.20;;
12425;SDS011;6277;49.824;9.562;2023-11-22T02:07:04;2.08;;;1.60;;
12425;SDS011;6277;49.824;9.562;2023-11-22T02:09:30;1.77;;;1.40;;
12425;SDS011;6277;49.824;9.562;2023-11-22T02:11:55;1.67;;;1.38;;
12425;SDS011;6277;49.824;9.562;2023-11-22T02:14:22;2.75;;;1.17;;
12425;SDS011;6277;49.824;9.562;2023-11-22T02:16:48;1.75;;;1.20;;
12425;SDS011;6277;49.824;9.562;2023-11-22T02:19:15;1.65;;;1.25;;
12425;SDS011;6277;49.824;9.562;2023-11-22T02:21:42;1.85;;;1.33;;
12425;SDS011;6277;49.824;9.562;2023-11-22T02:24:08;2.53;;;1.52;;
12425;SDS011;6277;49.824;9.562;2023-11-22T02:26:34;1.88;;;1.42;;
12425;SDS011;6277;49.824;9.562;2023-11-22T02:29:01;1.90;;;1.35;;
12425;SDS011;6277;49.824;9.562;2023-11-22T02:31:29;1.95;;;1.45;;
12425;SDS011;6277;49.824;9.562;2023-11-22T02:33:54;2.40;;;1.42;;
12425;SDS011;6277;49.824;9.562;2023-11-22T02:36:20;2.17;;;1.35;;
12425;SDS011;6277;49.824;9.562;2023-11-22T02:38:47;1.88;;;1.30;;
12425;SDS011;6277;49.824;9.562;2023-11-22T02:41:12;1.90;;;1.30;;
12425;SDS011;6277;49.824;9.562;2023-11-22T02:43:38;2.22;;;1.50;;
12425;SDS011;6277;49.824;9.562;2023-11-22T02:46:04;1.67;;;1.10;;
12425;SDS011;6277;49.824;9.562;2023-11-22T02:48:30;1.67;;;1.30;;
12425;SDS011;6277;49.824;9.562;2023-11-22T02:50:55;2.22;;;1.30;;
12425;SDS011;6277;49.824;9.562;2023-11-22T02:53:21;2.30;;;1.50;;
12425;SDS011;6277;49.824;9.562;2023-11-22T02:55:46;2.10;;;1.10;;
12425;SDS011;6277;49.824;9.562;2023-11-22T02:58:12;1.67;;;1.10;;
12425;SDS011;6277;49.824;9.562;2023-11-22T03:00:39;1.65;;;1.20;;
12425;SDS011;6277;49.824;9.562;2023-11-22T03:03:06;2.08;;;1.20;;
12425;SDS011;6277;49.824;9.562;2023-11-22T03:05:35;1.38;;;1.10;;
12425;SDS011;6277;49.824;9.562;2023-11-22T03:08:04;2.60;;;1.10;;
12425;SDS011;6277;49.824;9.562;2023-11-22T03:10:32;1.50;;;1.10;;
12425;SDS011;6277;49.824;9.562;2023-11-22T03:12:58;2.05;;;1.00;;
12425;SDS011;6277;49.824;9.562;2023-11-22T03:15:23;1.80;;;1.35;;
12425;SDS011;6277;49.824;9.562;2023-11-22T03:17:49;1.42;;;1.00;;
12425;SDS011;6277;49.824;9.562;2023-11-22T03:20:14;1.33;;;1.10;;
12425;SDS011;6277;49.824;9.562;2023-11-22T03:22:41;2.60;;;1.60;;
12425;SDS011;6277;49.824;9.562;2023-11-22T03:25:09;2.30;;;1.10;;
12425;SDS011;6277;49.824;9.562;2023-11-22T03:27:35;1.67;;;1.08;;
12425;SDS011;6277;49.824;9.562;2023-11-22T03:30:02;1.50;;;1.08;;
12425;SDS011;6277;49.824;9.562;2023-11-22T03:32:28;1.83;;;1.20;;
12425;SDS011;6277;49.824;9.562;2023-11-22T03:34:54;1.52;;;1.00;;
12425;SDS011;6277;49.824;9.562;2023-11-22T03:37:20;1.40;;;1.00;;
12425;SDS011;6277;49.824;9.562;2023-11-22T03:39:45;1.40;;;1.10;;
12425;SDS011;6277;49.824;9.562;2023-11-22T03:42:14;2.40;;;1.40;;
12425;SDS011;6277;49.824;9.562;2023-11-22T03:44:41;1.27;;;1.00;;
12425;SDS011;6277;49.824;9.562;2023-11-22T03:47:07;1.77;;;1.17;;
12425;SDS011;6277;49.824;9.562;2023-11-22T03:49:32;2.72;;;1.27;;
12425;SDS011;6277;49.824;9.562;2023-11-22T03:51:58;1.52;;;1.17;;
12425;SDS011;6277;49.824;9.562;2023-11-22T03:54:23;2.60;;;1.25;;
12425;SDS011;6277;49.824;9.562;2023-11-22T03:56:49;2.08;;;1.25;;
12425;SDS011;6277;49.824;9.562;2023-11-22T03:59:14;1.90;;;1.05;;
12425;SDS011;6277;49.824;9.562;2023-11-22T04:01:40;1.75;;;1.08;;
12425;SDS011;6277;49.824;9.562;2023-11-22T04:04:05;1.48;;;1.20;;
12425;SDS011;6277;49.824;9.562;2023-11-22T04:06:31;2.25;;;1.42;;
12425;SDS011;6277;49.824;9.562;2023-11-22T04:08:58;2.78;;;1.45;;
12425;SDS011;6277;49.824;9.562;2023-11-22T04:11:24;1.92;;;1.40;;
12425;SDS011;6277;49.824;9.562;2023-11-22T04:13:50;2.33;;;1.30;;
12425;SDS011;6277;49.824;9.562;2023-11-22T04:16:15;1.77;;;1.30;;
12425;SDS011;6277;49.824;9.562;2023-11-22T04:18:42;2.30;;;1.80;;
12425;SDS011;6277;49.824;9.562;2023-11-22T04:21:08;1.90;;;1.40;;
12425;SDS011;6277;49.824;9.562;2023-11-22T04:23:34;2.08;;;1.45;;
12425;SDS011;6277;49.824;9.562;2023-11-22T04:26:00;2.50;;;1.65;;
12425;SDS011;6277;49.824;9.562;2023-11-22T04:28:27;2.47;;;1.45;;
12425;SDS011;6277;49.824;9.562;2023-11-22T04:30:54;2.22;;;1.80;;
12425;SDS011;6277;49.824;9.562;2023-11-22T04:33:20;2.92;;;1.70;;
12425;SDS011;6277;49.824;9.562;2023-11-22T04:35:47;2.50;;;1.83;;
12425;SDS011;6277;49.824;9.562;2023-11-22T04:38:13;2.40;;;1.70;;
12425;SDS011;6277;49.824;9.562;2023-11-22T04:40:39;2.60;;;2.03;;
12425;SDS011;6277;49.824;9.562;2023-11-22T04:43:04;2.53;;;1.65;;
12425;SDS011;6277;49.824;9.562;2023-11-22T04:45:30;3.95;;;1.70;;
12425;SDS011;6277;49.824;9.562;2023-11-22T04:47:55;2.95;;;2.00;;
12425;SDS011;6277;49.824;9.562;2023-11-22T04:50:22;3.17;;;2.00;;
12425;SDS011;6277;49.824;9.562;2023-11-22T04:52:49;3.67;;;1.90;;
12425;SDS011;6277;49.824;9.562;2023-11-22T04:55:15;3.08;;;1.95;;
12425;SDS011;6277;49.824;9.562;2023-11-22T04:57:40;3.28;;;1.90;;
12425;SDS011;6277;49.824;9.562;2023-11-22T05:00:06;2.67;;;1.83;;
12425;SDS011;6277;49.824;9.562;2023-11-22T05:02:33;2.50;;;1.83;;
12425;SDS011;6277;49.824;9.562;2023-11-22T05:04:58;2.35;;;1.92;;
12425;SDS011;6277;49.824;9.562;2023-11-22T05:07:24;2.30;;;1.83;;
12425;SDS011;6277;49.824;9.562;2023-11-22T05:09:50;3.25;;;1.85;;
12425;SDS011;6277;49.824;9.562;2023-11-22T05:12:15;2.85;;;1.85;;
12425;SDS011;6277;49.824;9.562;2023-11-22T05:14:41;2.40;;;1.80;;
12425;SDS011;6277;49.824;9.562;2023-11-22T05:17:08;2.00;;;1.70;;
12425;SDS011;6277;49.824;9.562;2023-11-22T05:19:34;2.85;;;1.92;;
12425;SDS011;6277;49.824;9.562;2023-11-22T05:22:00;3.13;;;1.90;;
12425;SDS011;6277;49.824;9.562;2023-11-22T05:24:25;2.70;;;1.95;;
12425;SDS011;6277;49.824;9.562;2023-11-22T05:26:51;3.17;;;1.85;;
12425;SDS011;6277;49.824;9.562;2023-11-22T05:29:16;2.97;;;1.90;;
12425;SDS011;6277;49.824;9.562;2023-11-22T05:31:42;2.28;;;1.52;;
12425;SDS011;6277;49.824;9.562;2023-11-22T05:34:07;3.08;;;2.10;;
12425;SDS011;6277;49.824;9.562;2023-11-22T05:36:33;4.13;;;2.03;;
12425;SDS011;6277;49.824;9.562;2023-11-22T05:38:59;2.60;;;1.90;;
12425;SDS011;6277;49.824;9.562;2023-11-22T05:41:24;3.13;;;2.10;;
12425;SDS011;6277;49.824;9.562;2023-11-22T05:43:51;2.55;;;1.85;;
12425;SDS011;6277;49.824;9.562;2023-11-22T05:46:17;3.83;;;1.90;;
12425;SDS011;6277;49.824;9.562;2023-11-22T05:48:52;4.65;;;2.40;;
12425;SDS011;6277;49.824;9.562;2023-11-22T05:51:19;2.55;;;2.00;;
12425;SDS011;6277;49.824;9.562;2023-11-22T05:53:45;2.97;;;2.17;;
12425;SDS011;6277;49.824;9.562;2023-11-22T05:56:11;2.83;;;1.85;;
12425;SDS011;6277;49.824;9.562;2023-11-22T05:58:37;2.88;;;1.98;;
12425;SDS011;6277;49.824;9.562;2023-11-22T06:01:03;3.47;;;1.95;;
12425;SDS011;6277;49.824;9.562;2023-11-22T06:03:29;3.25;;;2.10;;
12425;SDS011;6277;49.824;9.562;2023-11-22T06:05:55;4.47;;;2.30;;
12425;SDS011;6277;49.824;9.562;2023-11-22T06:08:22;3.45;;;2.30;;
12425;SDS011;6277;49.824;9.562;2023-11-22T06:10:48;3.55;;;2.30;;
12425;SDS011;6277;49.824;9.562;2023-11-22T06:13:13;2.65;;;1.90;;
12425;SDS011;6277;49.824;9.562;2023-11-22T06:15:39;3.42;;;2.50;;
12425;SDS011;6277;49.824;9.562;2023-11-22T06:18:05;3.17;;;2.08;;
12425;SDS011;6277;49.824;9.562;2023-11-22T06:20:30;3.75;;;2.22;;
12425;SDS011;6277;49.824;9.562;2023-11-22T06:22:56;4.32;;;2.60;;
12425;SDS011;6277;49.824;9.562;2023-11-22T06:25:21;3.33;;;2.28;;
12425;SDS011;6277;49.824;9.562;2023-11-22T06:27:47;2.90;;;2.28;;
12425;SDS011;6277;49.824;9.562;2023-11-22T06:30:13;3.83;;;2.33;;
12425;SDS011;6277;49.824;9.562;2023-11-22T06:32:39;2.63;;;2.00;;
12425;SDS011;6277;49.824;9.562;2023-11-22T06:35:06;3.22;;;2.00;;
12425;SDS011;6277;49.824;9.562;2023-11-22T06:37:33;5.00;;;2.50;;
12425;SDS011;6277;49.824;9.562;2023-11-22T06:39:59;3.88;;;2.30;;
12425;SDS011;6277;49.824;9.562;2023-11-22T06:42:25;5.28;;;2.25;;
12425;SDS011;6277;49.824;9.562;2023-11-22T06:44:51;5.63;;;2.90;;
12425;SDS011;6277;49.824;9.562;2023-11-22T06:47:18;3.33;;;2.50;;
12425;SDS011;6277;49.824;9.562;2023-11-22T06:49:44;5.15;;;2.40;;
12425;SDS011;6277;49.824;9.562;2023-11-22T06:52:09;4.00;;;2.30;;
12425;SDS011;6277;49.824;9.562;2023-11-22T06:54:35;3.30;;;2.35;;
12425;SDS011;6277;49.824;9.562;2023-11-22T06:57:01;3.83;;;2.75;;
12425;SDS011;6277;49.824;9.562;2023-11-22T06:59:28;4.32;;;2.55;;
12425;SDS011;6277;49.824;9.562;2023-11-22T07:01:53;4.53;;;2.97;;
12425;SDS011;6277;49.824;9.562;2023-11-22T07:04:20;5.50;;;3.20;;
12425;SDS011;6277;49.824;9.562;2023-11-22T07:06:47;7.05;;;3.30;;
12425;SDS011;6277;49.824;9.562;2023-11-22T07:09:14;5.25;;;3.08;;
12425;SDS011;6277;49.824;9.562;2023-11-22T07:11:39;4.25;;;2.70;;
12425;SDS011;6277;49.824;9.562;2023-11-22T07:14:05;6.32;;;3.53;;
12425;SDS011;6277;49.824;9.562;2023-11-22T07:16:31;4.82;;;3.42;;
12425;SDS011;6277;49.824;9.562;2023-11-22T07:18:58;7.65;;;4.43;;
12425;SDS011;6277;49.824;9.562;2023-11-22T07:21:25;5.78;;;4.00;;
12425;SDS011;6277;49.824;9.562;2023-11-22T07:23:51;5.45;;;3.40;;
12425;SDS011;6277;49.824;9.562;2023-11-22T07:26:17;6.97;;;4.35;;
12425;SDS011;6277;49.824;9.562;2023-11-22T07:28:42;5.72;;;3.70;;
12425;SDS011;6277;49.824;9.562;2023-11-22T07:31:08;5.07;;;3.22;;
12425;SDS011;6277;49.824;9.562;2023-11-22T07:33:34;5.88;;;3.55;;
12425;SDS011;6277;49.824;9.562;2023-11-22T07:36:00;4.45;;;3.25;;
12425;SDS011;6277;49.824;9.562;2023-11-22T07:38:27;4.25;;;3.22;;
12425;SDS011;6277;49.824;9.562;2023-11-22T07:40:54;4.75;;;3.60;;
12425;SDS011;6277;49.824;9.562;2023-11-22T07:43:19;4.25;;;3.03;;
12425;SDS011;6277;49.824;9.562;2023-11-22T07:45:45;4.55;;;3.20;;
12425;SDS011;6277;49.824;9.562;2023-11-22T07:48:12;4.43;;;3.22;;
12425;SDS011;6277;49.824;9.562;2023-11-22T07:50:38;3.70;;;3.10;;
12425;SDS011;6277;49.824;9.562;2023-11-22T07:53:04;3.92;;;3.05;;
12425;SDS011;6277;49.824;9.562;2023-11-22T07:55:30;5.18;;;3.38;;
12425;SDS011;6277;49.824;9.562;2023-11-22T07:57:56;3.85;;;3.15;;
12425;SDS011;6277;49.824;9.562;2023-11-22T08:00:22;4.03;;;3.00;;
12425;SDS011;6277;49.824;9.562;2023-11-22T08:02:48;4.00;;;2.90;;
12425;SDS011;6277;49.824;9.562;2023-11-22T08:05:14;4.25;;;2.90;;
12425;SDS011;6277;49.824;9.562;2023-11-22T08:07:41;4.63;;;3.40;;
12425;SDS011;6277;49.824;9.562;2023-11-22T08:10:09;4.20;;;3.13;;
12425;SDS011;6277;49.824;9.562;2023-11-22T08:12:42;2.88;;;2.30;;
12425;SDS011;6277;49.824;9.562;2023-11-22T08:15:09;3.83;;;2.63;;
12425;SDS011;6277;49.824;9.562;2023-11-22T08:17:38;5.82;;;3.58;;
12425;SDS011;6277;49.824;9.562;2023-11-22T08:20:04;4.53;;;2.92;;
12425;SDS011;6277;49.824;9.562;2023-11-22T08:22:31;4.78;;;3.00;;
12425;SDS011;6277;49.824;9.562;2023-11-22T08:25:00;7.35;;;5.10;;
12425;SDS011;6277;49.824;9.562;2023-11-22T08:27:29;5.78;;;4.43;;
12425;SDS011;6277;49.824;9.562;2023-11-22T08:29:54;4.15;;;3.38;;
12425;SDS011;6277;49.824;9.562;2023-11-22T08:32:20;5.70;;;3.30;;
12425;SDS011;6277;49.824;9.562;2023-11-22T08:34:48;4.68;;;3.25;;
12425;SDS011;6277;49.824;9.562;2023-11-22T08:37:14;4.13;;;3.35;;
12425;SDS011;6277;49.824;9.562;2023-11-22T08:39:40;5.70;;;3.75;;
12425;SDS011;6277;49.824;9.562;2023-11-22T08:42:06;4.63;;;3.33;;
12425;SDS011;6277;49.824;9.562;2023-11-22T08:44:34;4.60;;;3.20;;
12425;SDS011;6277;49.824;9.562;2023-11-22T08:47:03;4.18;;;3.20;;
12425;SDS011;6277;49.824;9.562;2023-11-22T08:49:29;4.78;;;3.33;;
12425;SDS011;6277;49.824;9.562;2023-11-22T08:51:54;4.70;;;3.15;;
12425;SDS011;6277;49.824;9.562;2023-11-22T08:54:21;5.53;;;3.25;;
12425;SDS011;6277;49.824;9.562;2023-11-22T08:56:46;4.53;;;3.20;;
12425;SDS011;6277;49.824;9.562;2023-11-22T08:59:12;4.22;;;3.17;;
12425;SDS011;6277;49.824;9.562;2023-11-22T09:01:38;4.95;;;3.17;;
12425;SDS011;6277;49.824;9.562;2023-11-22T09:04:05;5.57;;;3.60;;
12425;SDS011;6277;49.824;9.562;2023-11-22T09:06:33;5.32;;;3.45;;
12425;SDS011;6277;49.824;9.562;2023-11-22T09:08:59;4.20;;;3.30;;
12425;SDS011;6277;49.824;9.562;2023-11-22T09:11:25;4.68;;;3.47;;
12425;SDS011;6277;49.824;9.562;2023-11-22T09:13:51;5.22;;;3.20;;
12425;SDS011;6277;49.824;9.562;2023-11-22T09:16:18;4.05;;;2.83;;
12425;SDS011;6277;49.824;9.562;2023-11-22T09:18:47;4.25;;;3.08;;
12425;SDS011;6277;49.824;9.562;2023-11-22T09:21:13;4.88;;;3.03;;
12425;SDS011;6277;49.824;9.562;2023-11-22T09:23:39;4.47;;;2.90;;
12425;SDS011;6277;49.824;9.562;2023-11-22T09:26:04;3.63;;;2.75;;
12425;SDS011;6277;49.824;9.562;2023-11-22T09:28:30;4.90;;;2.97;;
12425;SDS011;6277;49.824;9.562;2023-11-22T09:30:56;4.05;;;2.63;;
12425;SDS011;6277;49.824;9.562;2023-11-22T09:33:30;3.80;;;2.75;;
12425;SDS011;6277;49.824;9.562;2023-11-22T09:35:57;3.70;;;2.60;;
12425;SDS011;6277;49.824;9.562;2023-11-22T09:38:23;4.38;;;2.88;;
12425;SDS011;6277;49.824;9.562;2023-11-22T09:40:49;5.05;;;2.85;;
12425;SDS011;6277;49.824;9.562;2023-11-22T09:43:16;4.13;;;2.70;;
12425;SDS011;6277;49.824;9.562;2023-11-22T09:45:47;4.63;;;2.88;;
12425;SDS011;6277;49.824;9.562;2023-11-22T09:48:17;4.10;;;2.88;;
12425;SDS011;6277;49.824;9.562;2023-11-22T09:53:33;4.53;;;2.97;;
12425;SDS011;6277;49.824;9.562;2023-11-22T09:56:05;4.60;;;2.53;;
12425;SDS011;6277;49.824;9.562;2023-11-22T09:58:34;4.50;;;3.05;;
12425;SDS011;6277;49.824;9.562;2023-11-22T10:01:04;4.40;;;3.00;;
12425;SDS011;6277;49.824;9.562;2023-11-22T10:03:30;3.72;;;2.63;;
12425;SDS011;6277;49.824;9.562;2023-11-22T10:05:56;3.97;;;2.85;;
12425;SDS011;6277;49.824;9.562;2023-11-22T10:08:25;3.90;;;2.90;;
12425;SDS011;6277;49.824;9.562;2023-11-22T10:10:52;4.00;;;2.70;;
12425;SDS011;6277;49.824;9.562;2023-11-22T10:13:19;3.63;;;2.63;;
12425;SDS011;6277;49.824;9.562;2023-11-22T10:15:48;3.70;;;2.50;;
12425;SDS011;6277;49.824;9.562;2023-11-22T10:18:14;3.60;;;2.58;;
12425;SDS011;6277;49.824;9.562;2023-11-22T10:20:42;3.13;;;2.30;;
12425;SDS011;6277;49.824;9.562;2023-11-22T10:23:11;4.32;;;3.00;;
12425;SDS011;6277;49.824;9.562;2023-11-22T10:28:11;4.13;;;2.97;;
12425;SDS011;6277;49.824;9.562;2023-11-22T10:30:37;4.07;;;2.65;;
12425;SDS011;6277;49.824;9.562;2023-11-22T10:33:03;5.43;;;3.33;;
12425;SDS011;6277;49.824;9.562;2023-11-22T10:35:29;3.70;;;2.63;;
12425;SDS011;6277;49.824;9.562;2023-11-22T10:37:55;4.55;;;2.80;;
12425;SDS011;6277;49.824;9.562;2023-11-22T10:40:21;4.88;;;2.80;;
12425;SDS011;6277;49.824;9.562;2023-11-22T10:42:47;4.38;;;2.80;;
12425;SDS011;6277;49.824;9.562;2023-11-22T10:45:17;5.60;;;2.92;;
12425;SDS011;6277;49.824;9.562;2023-11-22T10:47:43;4.65;;;2.88;;
12425;SDS011;6277;49.824;9.562;2023-11-22T10:50:08;3.72;;;2.83;;
12425;SDS011;6277;49.824;9.562;2023-11-22T10:52:36;4.25;;;2.95;;
12425;SDS011;6277;49.824;9.562;2023-11-22T10:55:04;4.07;;;2.85;;
12425;SDS011;6277;49.824;9.562;2023-11-22T10:57:36;4.50;;;3.28;;
12425;SDS011;6277;49.824;9.562;2023-11-22T11:00:07;4.30;;;3.15;;
12425;SDS011;6277;49.824;9.562;2023-11-22T11:02:37;4.40;;;3.20;;
12425;SDS011;6277;49.824;9.562;2023-11-22T11:05:16;4.78;;;3.00;;
12425;SDS011;6277;49.824;9.562;2023-11-22T11:08:08;4.32;;;3.00;;
12425;SDS011;6277;49.824;9.562;2023-11-22T11:10:42;3.95;;;2.90;;
12425;SDS011;6277;49.824;9.562;2023-11-22T11:13:10;4.18;;;2.90;;
12425;SDS011;6277;49.824;9.562;2023-11-22T11:15:36;4.15;;;2.80;;
12425;SDS011;6277;49.824;9.562;2023-11-22T11:18:08;4.95;;;2.95;;
12425;SDS011;6277;49.824;9.562;2023-11-22T11:20:57;4.57;;;2.97;;
12425;SDS011;6277;49.824;9.562;2023-11-22T11:23:27;3.85;;;2.90;;
12425;SDS011;6277;49.824;9.562;2023-11-22T11:25:54;4.35;;;2.90;;
12425;SDS011;6277;49.824;9.562;2023-11-22T11:28:20;4.65;;;3.33;;
12425;SDS011;6277;49.824;9.562;2023-11-22T11:30:53;5.22;;;3.50;;
12425;SDS011;6277;49.824;9.562;2023-11-22T11:33:26;4.75;;;3.10;;
12425;SDS011;6277;49.824;9.562;2023-11-22T11:35:52;4.68;;;2.80;;
12425;SDS011;6277;49.824;9.562;2023-11-22T11:38:21;4.32;;;2.97;;
12425;SDS011;6277;49.824;9.562;2023-11-22T11:40:55;3.85;;;2.83;;
12425;SDS011;6277;49.824;9.562;2023-11-22T11:43:21;4.53;;;2.72;;
12425;SDS011;6277;49.824;9.562;2023-11-22T11:46:08;4.50;;;2.70;;
12425;SDS011;6277;49.824;9.562;2023-11-22T11:48:34;4.38;;;3.03;;
12425;SDS011;6277;49.824;9.562;2023-11-22T11:51:00;3.70;;;2.88;;
12425;SDS011;6277;49.824;9.562;2023-11-22T11:53:26;4.05;;;2.80;;
12425;SDS011;6277;49.824;9.562;2023-11-22T11:55:52;3.20;;;2.28;;
12425;SDS011;6277;49.824;9.562;2023-11-22T11:58:19;4.40;;;3.15;;
12425;SDS011;6277;49.824;9.562;2023-11-22T12:00:45;3.92;;;2.70;;
12425;SDS011;6277;49.824;9.562;2023-11-22T12:03:10;3.80;;;2.90;;
12425;SDS011;6277;49.824;9.562;2023-11-22T12:05:37;4.57;;;3.10;;
12425;SDS011;6277;49.824;9.562;2023-11-22T12:08:03;3.97;;;2.90;;
12425;SDS011;6277;49.824;9.562;2023-11-22T12:10:29;3.80;;;2.70;;
12425;SDS011;6277;49.824;9.562;2023-11-22T12:12:55;3.95;;;2.95;;
12425;SDS011;6277;49.824;9.562;2023-11-22T12:15:20;5.10;;;3.17;;
12425;SDS011;6277;49.824;9.562;2023-11-22T12:17:48;5.25;;;3.00;;
12425;SDS011;6277;49.824;9.562;2023-11-22T12:20:16;3.63;;;2.90;;
12425;SDS011;6277;49.824;9.562;2023-11-22T12:22:46;2.78;;;2.58;;
12425;SDS011;6277;49.824;9.562;2023-11-22T12:25:13;3.13;;;2.53;;
12425;SDS011;6277;49.824;9.562;2023-11-22T12:27:40;4.03;;;3.00;;
12425;SDS011;6277;49.824;9.562;2023-11-22T12:30:07;2.90;;;2.60;;
12425;SDS011;6277;49.824;9.562;2023-11-22T12:32:33;4.43;;;3.03;;
12425;SDS011;6277;49.824;9.562;2023-11-22T12:34:59;3.00;;;2.30;;
12425;SDS011;6277;49.824;9.562;2023-11-22T12:37:26;3.72;;;2.50;;
12425;SDS011;6277;49.824;9.562;2023-11-22T12:39:52;3.08;;;2.40;;
12425;SDS011;6277;49.824;9.562;2023-11-22T12:42:19;3.80;;;2.63;;
12425;SDS011;6277;49.824;9.562;2023-11-22T12:44:49;3.45;;;2.67;;
12425;SDS011;6277;49.824;9.562;2023-11-22T12:47:30;4.65;;;2.78;;
12425;SDS011;6277;49.824;9.562;2023-11-22T12:50:02;3.63;;;2.78;;
12425;SDS011;6277;49.824;9.562;2023-11-22T12:52:29;3.40;;;2.38;;
12425;SDS011;6277;49.824;9.562;2023-11-22T12:54:57;3.92;;;2.38;;
12425;SDS011;6277;49.824;9.562;2023-11-22T12:57:24;2.72;;;2.28;;
12425;SDS011;6277;49.824;9.562;2023-11-22T12:59:49;3.70;;;2.33;;
12425;SDS011;6277;49.824;9.562;2023-11-22T13:02:16;3.75;;;2.50;;
12425;SDS011;6277;49.824;9.562;2023-11-22T13:04:42;3.33;;;2.13;;
12425;SDS011;6277;49.824;9.562;2023-11-22T13:07:08;2.60;;;1.90;;
12425;SDS011;6277;49.824;9.562;2023-11-22T13:09:34;3.80;;;2.50;;
12425;SDS011;6277;49.824;9.562;2023-11-22T13:12:00;3.65;;;2.80;;
12425;SDS011;6277;49.824;9.562;2023-11-22T13:14:26;3.60;;;2.40;;
12425;SDS011;6277;49.824;9.562;2023-11-22T13:17:00;2.95;;;2.28;;
12425;SDS011;6277;49.824;9.562;2023-11-22T13:19:26;4.05;;;2.47;;
12425;SDS011;6277;49.824;9.562;2023-11-22T13:21:51;3.35;;;2.42;;
12425;SDS011;6277;49.824;9.562;2023-11-22T13:24:17;3.63;;;2.30;;
12425;SDS011;6277;49.824;9.562;2023-11-22T13:26:43;2.88;;;2.15;;
12425;SDS011;6277;49.824;9.562;2023-11-22T13:29:09;2.47;;;2.08;;
12425;SDS011;6277;49.824;9.562;2023-11-22T13:31:34;3.35;;;2.20;;
12425;SDS011;6277;49.824;9.562;2023-11-22T13:34:00;3.20;;;1.98;;
12425;SDS011;6277;49.824;9.562;2023-11-22T13:36:25;3.38;;;2.45;;
12425;SDS011;6277;49.824;9.562;2023-11-22T13:38:51;3.55;;;2.40;;
12425;SDS011;6277;49.824;9.562;2023-11-22T13:41:17;2.97;;;2.42;;
12425;SDS011;6277;49.824;9.562;2023-11-22T13:43:42;2.92;;;2.13;;
12425;SDS011;6277;49.824;9.562;2023-11-22T13:46:08;3.00;;;2.20;;
12425;SDS011;6277;49.824;9.562;2023-11-22T13:48:37;2.92;;;2.47;;
12425;SDS011;6277;49.824;9.562;2023-11-22T13:51:02;3.78;;;2.53;;
12425;SDS011;6277;49.824;9.562;2023-11-22T13:53:29;2.88;;;2.40;;
12425;SDS011;6277;49.824;9.562;2023-11-22T13:55:59;3.00;;;2.28;;
12425;SDS011;6277;49.824;9.562;2023-11-22T13:58:25;3.30;;;2.05;;
12425;SDS011;6277;49.824;9.562;2023-11-22T14:00:51;2.88;;;2.13;;
12425;SDS011;6277;49.824;9.562;2023-11-22T14:03:19;2.92;;;1.92;;
12425;SDS011;6277;49.824;9.562;2023-11-22T14:05:47;2.92;;;2.13;;
12425;SDS011;6277;49.824;9.562;2023-11-22T14:08:13;2.78;;;2.17;;
12425;SDS011;6277;49.824;9.562;2023-11-22T14:10:40;4.47;;;2.40;;
12425;SDS011;6277;49.824;9.562;2023-11-22T14:13:05;2.92;;;1.95;;
12425;SDS011;6277;49.824;9.562;2023-11-22T14:15:33;2.70;;;2.03;;
12425;SDS011;6277;49.824;9.562;2023-11-22T14:18:00;3.13;;;2.05;;
12425;SDS011;6277;49.824;9.562;2023-11-22T14:20:26;2.05;;;1.65;;
12425;SDS011;6277;49.824;9.562;2023-11-22T14:22:51;2.50;;;1.98;;
12425;SDS011;6277;49.824;9.562;2023-11-22T14:25:18;2.45;;;1.90;;
12425;SDS011;6277;49.824;9.562;2023-11-22T14:27:44;2.97;;;2.20;;
12425;SDS011;6277;49.824;9.562;2023-11-22T14:30:11;3.15;;;2.40;;
12425;SDS011;6277;49.824;9.562;2023-11-22T14:32:42;4.07;;;2.40;;
12425;SDS011;6277;49.824;9.562;2023-11-22T14:35:08;3.00;;;2.30;;
12425;SDS011;6277;49.824;9.562;2023-11-22T14:37:34;2.55;;;2.33;;
12425;SDS011;6277;49.824;9.562;2023-11-22T14:40:01;3.50;;;2.50;;
12425;SDS011;6277;49.824;9.562;2023-11-22T14:42:29;3.95;;;2.33;;
12425;SDS011;6277;49.824;9.562;2023-11-22T14:44:56;3.60;;;2.60;;
12425;SDS011;6277;49.824;9.562;2023-11-22T14:47:22;3.00;;;2.25;;
12425;SDS011;6277;49.824;9.562;2023-11-22T14:49:54;3.05;;;2.17;;
12425;SDS011;6277;49.824;9.562;2023-11-22T14:52:19;4.45;;;2.28;;
12425;SDS011;6277;49.824;9.562;2023-11-22T14:54:46;2.70;;;2.20;;
12425;SDS011;6277;49.824;9.562;2023-11-22T14:57:13;3.33;;;2.20;;
12425;SDS011;6277;49.824;9.562;2023-11-22T14:59:39;3.28;;;2.20;;
12425;SDS011;6277;49.824;9.562;2023-11-22T15:02:05;2.63;;;2.15;;